createdAt,value
2018-11-23T04:28:19.316Z,8.03
2018-11-23T10:33:52.791Z,11.57
2018-11-23T15:02:42.749Z,12.93
2018-11-23T16:29:45.352Z,11.23
2018-11-23T16:56:21.977Z,12.73
2018-11-23T17:03:49.298Z,11.63
2018-11-23T17:14:15.675Z,12.27
2018-11-23T17:16:46.704Z,11.63
2018-11-23T17:19:17.762Z,12.60
2018-11-23T17:21:48.796Z,12.60
2018-11-23T17:24:20.502Z,12.10
2018-11-23T17:26:51.210Z,12.67
2018-11-23T17:29:23.222Z,12.67
2018-11-23T17:31:52.971Z,12.53
2018-11-23T17:34:23.980Z,12.13
2018-11-23T17:36:54.603Z,12.20
2018-11-23T17:39:25.266Z,12.10
2018-11-23T17:41:56.030Z,13.43
2018-11-23T17:44:26.834Z,11.95
2018-11-23T17:46:57.882Z,12.77
2018-11-23T17:49:28.690Z,12.37
2018-11-23T17:51:59.559Z,12.80
2018-11-23T17:54:30.232Z,13.00
2018-11-23T17:57:00.961Z,12.57
2018-11-23T17:59:50.697Z,13.77
2018-11-23T18:02:26.070Z,12.43
2018-11-23T18:04:56.831Z,13.00
2018-11-23T18:07:27.624Z,13.97
2018-11-23T18:10:00.304Z,13.93
2018-11-23T18:12:31.090Z,14.23
2018-11-23T18:15:01.862Z,13.73
2018-11-23T18:17:32.523Z,13.33
2018-11-23T18:20:03.192Z,14.33
2018-11-23T18:22:33.933Z,13.40
2018-11-23T18:25:04.914Z,13.20
2018-11-23T18:27:36.014Z,13.57
2018-11-23T18:30:11.121Z,14.07
2018-11-23T18:32:42.309Z,13.03
2018-11-23T18:35:18.534Z,13.43
2018-11-23T18:37:56.277Z,12.83
2018-11-23T18:40:27.852Z,12.57
2018-11-23T18:42:58.802Z,12.10
2018-11-23T18:45:30.109Z,13.40
2018-11-23T18:48:01.715Z,13.97
2018-11-23T18:50:35.766Z,12.63
2018-11-23T18:53:07.013Z,13.67
2018-11-23T18:56:06.790Z,12.70
2018-11-23T18:59:08.881Z,11.67
2018-11-23T19:01:48.507Z,12.43
2018-11-23T19:04:35.843Z,11.77
2018-11-23T19:07:13.360Z,10.90
2018-11-23T19:09:58.996Z,11.00
2018-11-23T19:12:39.630Z,12.20
2018-11-23T19:15:25.469Z,12.40
2018-11-23T19:17:55.317Z,11.43
2018-11-23T19:20:53.174Z,11.47
2018-11-23T19:23:37.855Z,12.00
2018-11-23T19:26:27.407Z,11.87
2018-11-23T19:29:36.993Z,11.43
2018-11-23T19:32:35.644Z,11.63
2018-11-23T19:35:44.800Z,11.83
2018-11-23T19:38:18.657Z,12.70
2018-11-23T19:41:06.654Z,12.20
2018-11-23T19:44:05.288Z,11.97
2018-11-23T19:46:56.473Z,11.27
2018-11-23T19:50:42.461Z,10.57
2018-11-23T19:53:24.609Z,11.50
2018-11-23T19:56:02.415Z,11.03
2018-11-23T19:58:41.784Z,12.03
2018-11-23T20:01:27.690Z,12.50
2018-11-23T20:03:57.113Z,11.87
2018-11-23T20:06:27.517Z,12.80
2018-11-23T20:08:58.378Z,11.83
2018-11-23T20:11:29.294Z,11.47
2018-11-23T20:14:00.601Z,10.70
2018-11-23T20:16:31.076Z,10.20
2018-11-23T20:19:02.046Z,11.33
2018-11-23T20:21:40.934Z,10.80
2018-11-23T20:24:12.351Z,11.37
2018-11-23T20:26:43.156Z,12.27
2018-11-23T20:29:13.675Z,10.97
2018-11-23T20:31:44.202Z,11.33
2018-11-23T20:34:15.921Z,11.10
2018-11-23T20:36:47.270Z,11.53
2018-11-23T20:39:18.280Z,10.70
2018-11-23T20:41:49.139Z,10.30
2018-11-23T20:44:20.030Z,10.70
2018-11-23T20:46:50.730Z,11.47
2018-11-23T20:49:21.689Z,12.47
2018-11-23T20:51:53.427Z,11.93
2018-11-23T20:54:24.933Z,11.15
2018-11-23T20:56:55.502Z,10.80
2018-11-23T20:59:26.972Z,10.93
2018-11-23T21:01:57.641Z,11.53
2018-11-23T21:04:36.434Z,11.10
2018-11-23T21:07:07.658Z,11.37
2018-11-23T21:09:38.703Z,10.30
2018-11-23T21:12:09.763Z,10.17
2018-11-23T21:14:42.310Z,9.93
2018-11-23T21:17:13.924Z,10.67
2018-11-23T21:19:44.467Z,11.20
2018-11-23T21:22:15.353Z,10.43
2018-11-23T21:25:21.980Z,10.15
2018-11-23T21:27:52.774Z,9.97
2018-11-23T21:30:27.914Z,10.07
2018-11-23T21:32:59.522Z,10.27
2018-11-23T21:35:30.647Z,11.27
2018-11-23T21:38:03.975Z,11.83
2018-11-23T21:40:32.621Z,11.20
2018-11-23T21:43:03.281Z,10.60
2018-11-23T21:45:34.453Z,10.40
2018-11-23T21:48:05.497Z,10.83
2018-11-23T21:50:36.743Z,11.73
2018-11-23T21:53:08.193Z,12.40
2018-11-23T21:55:39.273Z,11.87
2018-11-23T21:58:22.208Z,12.87
2018-11-23T22:00:53.342Z,12.40
2018-11-23T22:03:29.112Z,11.13
2018-11-23T22:06:04.265Z,10.93
2018-11-23T22:08:35.093Z,10.77
2018-11-23T22:11:06.249Z,10.20
2018-11-23T22:13:39.782Z,10.47
2018-11-23T22:16:10.334Z,10.87
2018-11-23T22:18:41.053Z,11.67
2018-11-23T22:21:11.982Z,10.87
2018-11-23T22:23:42.571Z,9.87
2018-11-23T22:26:13.673Z,11.47
2018-11-23T22:28:44.698Z,11.13
2018-11-23T22:31:15.493Z,11.13
2018-11-23T22:34:07.181Z,11.13
2018-11-23T22:36:37.695Z,11.00
2018-11-23T22:39:10.334Z,10.57
2018-11-23T22:41:44.036Z,11.60
2018-11-23T22:44:15.727Z,12.40
2018-11-23T22:46:49.312Z,11.83
2018-11-23T22:49:20.031Z,12.37
2018-11-23T22:51:50.827Z,11.60
2018-11-23T22:54:21.537Z,12.63
2018-11-23T22:57:01.648Z,12.70
2018-11-23T22:59:43.099Z,11.53
2018-11-23T23:09:47.102Z,13.57
